X  Sluiten METAR luchtvaart weer gegevens      LBPD Plovdiv International Airport
Temperatuur
18°C Temperatuur
13°C Dauwpunt
73% Vochtigheid



Wind
6 MPH
10 KM/U
3 M/S
5 KTS



110°
OZO
Huidig weer

Wat bewolking Wat bewolking
Luchtdruk 1005.08 (hPa) - 29.68 (inHg)
Zicht 6 (mijl) - 9.7 (km)
Vliegveld
Vliegveld code LBPD

Locatie : Plovdiv International Airport
Afstand: 14 (mi)

Metar:
LBPD 240930Z AUTO 11005KT 060V170 9999 FEW024/// 18/13 Q1005 NOSIG

Tijd: 24-04-2024 12:30 EEST